createdAt,value
2023-05-06T00:00:20.879Z,101631.59
2023-05-06T00:02:49.182Z,101626.94
2023-05-06T00:05:18.897Z,101626.03
2023-05-06T00:07:47.272Z,101624.59
2023-05-06T00:10:15.969Z,101625.38
2023-05-06T00:12:44.244Z,101624.47
2023-05-06T00:15:13.974Z,101624.41
2023-05-06T00:17:42.192Z,101628.22
2023-05-06T00:20:11.449Z,101625.88
2023-05-06T00:22:39.646Z,101622.28
2023-05-06T00:25:09.019Z,101622.75
2023-05-06T00:27:37.466Z,101614.59
2023-05-06T00:30:07.228Z,101613.00
2023-05-06T00:32:36.894Z,101612.22
2023-05-06T00:35:06.202Z,101615.72
2023-05-06T00:37:34.451Z,101614.94
2023-05-06T00:40:03.524Z,101607.09
2023-05-06T00:42:31.741Z,101615.59
2023-05-06T00:44:59.963Z,101607.84
2023-05-06T00:47:28.231Z,101610.13
2023-05-06T00:50:00.875Z,101609.66
2023-05-06T00:52:29.459Z,101613.09
2023-05-06T00:54:58.614Z,101605.16
2023-05-06T00:57:27.025Z,101617.56
2023-05-06T00:59:55.885Z,101618.59
2023-05-06T01:02:30.628Z,101613.84
2023-05-06T01:05:07.595Z,101615.69
2023-05-06T01:07:44.606Z,101612.41
2023-05-06T01:10:23.066Z,101606.91
2023-05-06T01:13:00.291Z,101611.88
2023-05-06T01:15:36.337Z,101612.25
2023-05-06T01:18:12.337Z,101599.59
2023-05-06T01:20:43.634Z,101595.91
2023-05-06T01:23:14.858Z,101591.41
2023-05-06T01:25:43.357Z,101599.81
2023-05-06T01:28:13.024Z,101603.13
2023-05-06T01:30:52.761Z,101602.19
2023-05-06T01:33:32.806Z,101603.25
2023-05-06T01:36:12.964Z,101602.78
2023-05-06T01:38:51.661Z,101596.16
2023-05-06T01:41:21.684Z,101596.91
2023-05-06T01:43:51.264Z,101592.66
2023-05-06T01:46:22.985Z,101590.59
2023-05-06T01:48:55.085Z,101597.50
2023-05-06T01:51:23.514Z,101598.66
2023-05-06T01:53:53.091Z,101597.09
2023-05-06T01:56:21.765Z,101595.16
2023-05-06T01:58:50.164Z,101599.00
2023-05-06T02:01:18.375Z,101591.53
2023-05-06T02:03:46.703Z,101598.78
2023-05-06T02:06:15.008Z,101594.81
2023-05-06T02:08:43.252Z,101592.81
2023-05-06T02:11:12.858Z,101603.19
2023-05-06T02:13:41.088Z,101607.03
2023-05-06T02:16:09.710Z,101601.63
2023-05-06T02:18:38.009Z,101608.63
2023-05-06T02:21:06.240Z,101615.63
2023-05-06T02:23:34.466Z,101613.25
2023-05-06T02:26:02.703Z,101616.22
2023-05-06T02:28:32.253Z,101612.84
2023-05-06T02:31:00.501Z,101605.63
2023-05-06T02:33:28.752Z,101607.63
2023-05-06T02:35:56.937Z,101614.41
2023-05-06T02:38:26.821Z,101608.13
2023-05-06T02:40:55.025Z,101606.41
2023-05-06T02:43:23.706Z,101612.16
2023-05-06T02:45:53.788Z,101613.63
2023-05-06T02:48:22.104Z,101608.41
2023-05-06T02:50:50.349Z,101614.63
2023-05-06T02:53:18.562Z,101606.50
2023-05-06T02:55:46.772Z,101611.94
2023-05-06T02:58:14.970Z,101609.91
2023-05-06T03:00:43.198Z,101598.84
2023-05-06T03:03:12.824Z,101600.19
2023-05-06T03:05:41.121Z,101592.25
2023-05-06T03:08:09.392Z,101590.25
2023-05-06T03:10:37.608Z,101592.47
2023-05-06T03:13:05.967Z,101596.31
2023-05-06T03:15:34.227Z,101596.97
2023-05-06T03:18:02.694Z,101591.22
2023-05-06T03:20:32.253Z,101597.44
2023-05-06T03:23:00.493Z,101595.50
2023-05-06T03:25:28.680Z,101597.88
2023-05-06T03:27:56.886Z,101592.03
2023-05-06T03:30:25.064Z,101594.28
2023-05-06T03:32:53.313Z,101591.78
2023-05-06T03:35:21.636Z,101593.13
2023-05-06T03:37:51.272Z,101597.19
2023-05-06T03:40:19.497Z,101596.72
2023-05-06T03:42:47.964Z,101600.66
2023-05-06T03:45:16.157Z,101597.59
2023-05-06T03:47:45.545Z,101594.91
2023-05-06T03:50:14.035Z,101593.31
2023-05-06T03:52:42.369Z,101592.09
2023-05-06T03:55:12.690Z,101599.63
2023-05-06T03:57:40.970Z,101592.84
2023-05-06T04:00:10.878Z,101594.63
2023-05-06T04:02:39.220Z,101596.88
2023-05-06T04:05:09.164Z,101595.19
2023-05-06T04:07:37.552Z,101592.81
2023-05-06T04:10:07.618Z,101591.31
2023-05-06T04:12:37.262Z,101599.59
2023-05-06T04:15:07.559Z,101597.66
2023-05-06T04:17:35.971Z,101608.50
2023-05-06T04:20:11.768Z,101601.63
2023-05-06T04:22:40.142Z,101607.94
2023-05-06T04:25:10.380Z,101601.09
2023-05-06T04:27:40.172Z,101608.41
2023-05-06T04:30:10.367Z,101614.94
2023-05-06T04:32:38.843Z,101611.44
2023-05-06T04:35:09.093Z,101619.25
2023-05-06T04:37:37.476Z,101628.19
2023-05-06T04:40:07.257Z,101624.91
2023-05-06T04:42:35.479Z,101629.38
2023-05-06T04:45:06.288Z,101630.03
2023-05-06T04:47:35.619Z,101623.00
2023-05-06T04:50:04.454Z,101621.09
2023-05-06T04:52:33.097Z,101627.00
2023-05-06T04:55:01.288Z,101627.13
2023-05-06T04:57:29.502Z,101634.94
2023-05-06T04:59:57.830Z,101632.66
2023-05-06T05:02:27.494Z,101633.91
2023-05-06T05:04:55.785Z,101639.09
2023-05-06T05:07:24.133Z,101637.78
2023-05-06T05:09:52.340Z,101638.81
2023-05-06T05:12:20.790Z,101639.84
2023-05-06T05:14:49.060Z,101647.13
2023-05-06T05:17:17.326Z,101654.38
2023-05-06T05:19:46.998Z,101650.72
2023-05-06T05:22:15.961Z,101651.75
2023-05-06T05:24:44.133Z,101659.38
2023-05-06T05:27:12.373Z,101656.53
2023-05-06T05:29:40.612Z,101664.53
2023-05-06T05:32:08.926Z,101664.47
2023-05-06T05:34:37.173Z,101664.34
2023-05-06T05:37:06.759Z,101664.22
2023-05-06T05:39:34.996Z,101662.97
2023-05-06T05:42:03.674Z,101672.56
2023-05-06T05:44:33.773Z,101665.91
2023-05-06T05:47:03.669Z,101663.03
2023-05-06T05:49:31.901Z,101666.41
2023-05-06T05:52:00.198Z,101665.84
2023-05-06T05:54:30.356Z,101674.19
2023-05-06T05:56:59.226Z,101674.28
2023-05-06T05:59:28.624Z,101676.31
2023-05-06T06:01:56.902Z,101683.88
2023-05-06T06:04:25.856Z,101681.34
2023-05-06T06:06:54.175Z,101673.31
2023-05-06T06:09:22.927Z,101677.00
2023-05-06T06:11:52.514Z,101674.47
2023-05-06T06:14:20.734Z,101681.66
2023-05-06T06:16:48.972Z,101677.69
2023-05-06T06:19:17.209Z,101669.34
2023-05-06T06:21:45.523Z,101674.97
2023-05-06T06:24:14.178Z,101680.25
2023-05-06T06:26:42.432Z,101679.28
2023-05-06T06:29:12.348Z,101669.38
2023-05-06T06:31:40.912Z,101672.34
2023-05-06T06:34:09.751Z,101670.22
2023-05-06T06:36:40.272Z,101671.97
2023-05-06T06:39:08.483Z,101674.53
2023-05-06T06:41:36.766Z,101675.81
2023-05-06T06:44:05.370Z,101677.13
2023-05-06T06:46:35.150Z,101674.56
2023-05-06T06:49:03.362Z,101675.47
2023-05-06T06:51:32.469Z,101685.75
2023-05-06T06:54:00.755Z,101682.03
2023-05-06T06:56:29.013Z,101686.13
2023-05-06T06:58:57.205Z,101681.56
2023-05-06T07:01:25.529Z,101690.63
2023-05-06T07:03:55.154Z,101677.94
2023-05-06T07:06:23.368Z,101680.09
2023-05-06T07:08:51.562Z,101685.31
2023-05-06T07:11:22.180Z,101686.25
2023-05-06T07:13:50.354Z,101678.19
2023-05-06T07:16:18.924Z,101683.75
2023-05-06T07:18:47.952Z,101690.56
2023-05-06T07:21:17.526Z,101686.03
2023-05-06T07:23:45.967Z,101690.09
2023-05-06T07:26:14.189Z,101690.16
2023-05-06T07:28:42.378Z,101686.03
2023-05-06T07:31:10.757Z,101687.41
2023-05-06T07:33:39.013Z,101691.44
2023-05-06T07:36:08.180Z,101691.94
2023-05-06T07:38:37.769Z,101687.72
2023-05-06T07:41:06.261Z,101695.59
2023-05-06T07:43:34.761Z,101700.75
2023-05-06T07:46:03.475Z,101687.59
2023-05-06T07:48:32.718Z,101697.72
2023-05-06T07:51:01.882Z,101698.63
2023-05-06T07:53:30.128Z,101697.13
2023-05-06T07:56:02.251Z,101703.06
2023-05-06T07:58:31.331Z,101704.28
2023-05-06T08:01:00.293Z,101701.97
2023-05-06T08:03:28.714Z,101703.59
2023-05-06T08:05:57.259Z,101701.69
2023-05-06T08:08:27.933Z,101706.50
2023-05-06T08:10:57.138Z,101707.78
2023-05-06T08:13:28.184Z,101709.88
2023-05-06T08:15:56.612Z,101705.31
2023-05-06T08:18:25.042Z,101716.31
2023-05-06T08:20:53.266Z,101710.16
2023-05-06T08:23:22.136Z,101711.84
2023-05-06T08:25:50.428Z,101712.78
2023-05-06T08:28:18.810Z,101719.53
2023-05-06T08:30:48.580Z,101712.22
2023-05-06T08:33:16.956Z,101709.88
2023-05-06T08:35:45.550Z,101710.66
2023-05-06T08:38:15.098Z,101712.28
2023-05-06T08:40:45.492Z,101711.53
2023-05-06T08:43:18.527Z,101713.16
2023-05-06T08:45:48.684Z,101705.78
2023-05-06T08:48:16.971Z,101700.72
2023-05-06T08:50:45.819Z,101697.63
2023-05-06T08:53:14.972Z,101698.44
2023-05-06T08:55:44.127Z,101690.66
2023-05-06T08:58:15.686Z,101680.94
2023-05-06T09:00:44.487Z,101693.16
2023-05-06T09:03:14.098Z,101686.91
2023-05-06T09:05:42.610Z,101697.50
2023-05-06T09:08:11.684Z,101695.59
2023-05-06T09:10:46.173Z,101697.19
2023-05-06T09:13:16.461Z,101695.63
2023-05-06T09:15:47.290Z,101688.59
2023-05-06T09:18:17.986Z,101688.59
2023-05-06T09:20:48.870Z,101684.31
2023-05-06T09:23:19.146Z,101681.53
2023-05-06T09:25:49.691Z,101674.88
2023-05-06T09:28:18.008Z,101675.25
2023-05-06T09:30:47.708Z,101676.81
2023-05-06T09:33:17.781Z,101668.13
2023-05-06T09:35:46.197Z,101667.72
2023-05-06T09:38:14.433Z,101671.63
2023-05-06T09:40:42.663Z,101667.28
2023-05-06T09:43:10.954Z,101667.69
2023-05-06T09:45:39.383Z,101661.78
2023-05-06T09:48:10.307Z,101667.72
2023-05-06T09:50:39.721Z,101672.06
2023-05-06T09:53:08.462Z,101677.56
2023-05-06T09:55:37.515Z,101677.59
2023-05-06T09:58:08.089Z,101668.19
2023-05-06T10:00:37.775Z,101666.25
2023-05-06T10:03:07.119Z,101666.25
2023-05-06T10:05:37.673Z,101663.50
2023-05-06T10:08:09.665Z,101661.94
2023-05-06T10:10:38.884Z,101667.44
2023-05-06T10:13:07.226Z,101665.47
2023-05-06T10:15:36.493Z,101669.78
2023-05-06T10:18:06.798Z,101658.03
2023-05-06T10:20:37.054Z,101656.47
2023-05-06T10:23:20.850Z,101654.09
2023-05-06T10:25:52.046Z,101651.31
2023-05-06T10:28:31.142Z,101647.78
2023-05-06T10:31:01.414Z,101650.94
2023-05-06T10:33:30.706Z,101652.09
2023-05-06T10:36:13.129Z,101643.00
2023-05-06T10:38:45.642Z,101638.97
2023-05-06T10:41:15.702Z,101638.00
2023-05-06T10:43:45.364Z,101634.00
2023-05-06T10:46:15.781Z,101631.63
2023-05-06T10:49:18.326Z,101625.75
2023-05-06T10:51:49.026Z,101629.69
2023-05-06T10:54:25.696Z,101630.16
2023-05-06T10:57:10.618Z,101633.28
2023-05-06T10:59:38.941Z,101625.41
2023-05-06T11:02:11.139Z,101628.88
2023-05-06T11:04:40.023Z,101628.81
2023-05-06T11:07:10.030Z,101624.84
2023-05-06T11:09:58.720Z,101629.84
2023-05-06T11:12:49.173Z,101620.44
2023-05-06T11:15:25.205Z,101617.78
2023-05-06T11:17:55.514Z,101622.94
2023-05-06T11:20:25.741Z,101617.75
2023-05-06T11:22:54.418Z,101611.50
2023-05-06T11:25:43.580Z,101606.47
2023-05-06T11:28:12.746Z,101611.94
2023-05-06T11:30:44.083Z,101609.19
2023-05-06T11:33:20.405Z,101615.84
2023-05-06T11:35:49.613Z,101610.16
2023-05-06T11:38:17.862Z,101606.97
2023-05-06T11:40:47.625Z,101614.00
2023-05-06T11:43:17.509Z,101612.09
2023-05-06T11:45:47.630Z,101605.53
2023-05-06T11:48:17.397Z,101598.22
2023-05-06T11:50:47.602Z,101601.81
2023-05-06T11:53:19.059Z,101593.06
2023-05-06T11:55:50.204Z,101593.06
2023-05-06T11:58:19.873Z,101592.75
2023-05-06T12:00:51.866Z,101593.13
2023-05-06T12:03:20.824Z,101593.47
2023-05-06T12:05:50.095Z,101591.44
2023-05-06T12:08:27.585Z,101590.56
2023-05-06T12:11:01.030Z,101596.00
2023-05-06T12:13:30.192Z,101582.53
2023-05-06T12:16:01.481Z,101582.09
2023-05-06T12:18:30.295Z,101581.66
2023-05-06T12:21:02.521Z,101582.41
2023-05-06T12:23:30.935Z,101575.28
2023-05-06T12:26:05.781Z,101577.66
2023-05-06T12:28:37.371Z,101575.75
2023-05-06T12:31:20.415Z,101571.47
2023-05-06T12:33:50.554Z,101573.44
2023-05-06T12:36:19.138Z,101577.75
2023-05-06T12:38:57.924Z,101574.59
2023-05-06T12:41:39.389Z,101583.09
2023-05-06T12:44:33.328Z,101578.72
2023-05-06T12:47:03.756Z,101573.59
2023-05-06T12:49:52.154Z,101572.13
2023-05-06T12:52:22.676Z,101572.94
2023-05-06T12:54:53.117Z,101580.09
2023-05-06T12:57:22.941Z,101571.94
2023-05-06T12:59:51.450Z,101575.53
2023-05-06T13:02:20.464Z,101570.50
2023-05-06T13:04:48.763Z,101567.75
2023-05-06T13:07:17.098Z,101570.19
2023-05-06T13:09:45.443Z,101578.91
2023-05-06T13:12:13.657Z,101569.03
2023-05-06T13:14:43.256Z,101578.91
2023-05-06T13:17:11.599Z,101578.50
2023-05-06T13:19:40.007Z,101569.81
2023-05-06T13:22:08.253Z,101573.34
2023-05-06T13:24:36.516Z,101570.66
2023-05-06T13:27:04.827Z,101576.59
2023-05-06T13:29:33.055Z,101569.16
2023-05-06T13:32:05.169Z,101572.31
2023-05-06T13:34:34.520Z,101569.16
2023-05-06T13:37:02.823Z,101566.03
2023-05-06T13:39:31.068Z,101569.56
2023-05-06T13:41:59.253Z,101576.63
2023-05-06T13:44:27.809Z,101567.25
2023-05-06T13:46:56.243Z,101559.34
2023-05-06T13:49:25.917Z,101559.00
2023-05-06T13:51:54.346Z,101561.75
2023-05-06T13:54:22.549Z,101554.69
2023-05-06T13:56:50.849Z,101559.34
2023-05-06T13:59:19.092Z,101551.53
2023-05-06T14:01:49.537Z,101551.09
2023-05-06T14:04:17.822Z,101550.75
2023-05-06T14:06:47.581Z,101551.94
2023-05-06T14:09:15.798Z,101549.19
2023-05-06T14:11:44.222Z,101544.47
2023-05-06T14:14:12.486Z,101539.38
2023-05-06T14:16:40.695Z,101542.91
2023-05-06T14:19:11.044Z,101542.91
2023-05-06T14:21:39.236Z,101537.44
2023-05-06T14:24:10.815Z,101537.47
2023-05-06T14:26:40.357Z,101537.53
2023-05-06T14:29:09.005Z,101535.16
2023-05-06T14:31:37.285Z,101541.09
2023-05-06T14:34:06.068Z,101538.75
2023-05-06T14:36:34.373Z,101547.06
2023-05-06T14:39:02.646Z,101558.13
2023-05-06T14:41:32.201Z,101562.28
2023-05-06T14:44:00.393Z,101561.00
2023-05-06T14:46:29.736Z,101566.31
2023-05-06T14:48:58.189Z,101561.72
2023-05-06T14:51:26.454Z,101569.28
2023-05-06T14:53:54.697Z,101563.13
2023-05-06T14:56:22.958Z,101567.88
2023-05-06T14:58:52.838Z,101569.88
2023-05-06T15:01:21.148Z,101566.38
2023-05-06T15:03:50.733Z,101565.25
2023-05-06T15:06:19.093Z,101573.75
2023-05-06T15:08:47.349Z,101566.13
2023-05-06T15:11:15.886Z,101571.09
2023-05-06T15:13:44.093Z,101573.81
2023-05-06T15:16:13.823Z,101576.03
2023-05-06T15:18:42.837Z,101577.88
2023-05-06T15:21:13.246Z,101580.38
2023-05-06T15:23:41.586Z,101580.63
2023-05-06T15:26:09.813Z,101579.41
2023-05-06T15:28:38.065Z,101576.28
2023-05-06T15:31:06.577Z,101573.13
2023-05-06T15:33:36.436Z,101579.78
2023-05-06T15:36:05.008Z,101573.88
2023-05-06T15:39:00.409Z,101581.72
2023-05-06T15:41:30.574Z,101570.88
2023-05-06T15:44:00.423Z,101572.50
2023-05-06T15:46:29.751Z,101577.66
2023-05-06T15:49:22.337Z,101578.09
2023-05-06T15:51:47.810Z,101580.47
2023-05-06T15:54:19.066Z,101582.81
2023-05-06T15:56:47.775Z,101583.94
2023-05-06T15:59:16.469Z,101582.38
2023-05-06T16:04:18.813Z,101582.38
2023-05-06T16:06:47.193Z,101588.22
2023-05-06T16:09:15.621Z,101578.44
2023-05-06T16:11:43.856Z,101585.84
2023-05-06T16:14:12.077Z,101581.13
2023-05-06T16:16:40.346Z,101577.25
2023-05-06T16:19:08.869Z,101580.72
2023-05-06T16:21:38.531Z,101574.94
2023-05-06T16:24:07.341Z,101588.25
2023-05-06T16:26:35.511Z,101587.88
2023-05-06T16:29:03.782Z,101585.88
2023-05-06T16:31:33.281Z,101589.78
2023-05-06T16:34:01.596Z,101591.34
2023-05-06T16:36:29.996Z,101587.06
2023-05-06T16:38:59.622Z,101582.78
2023-05-06T16:41:28.169Z,101593.34
2023-05-06T16:43:56.550Z,101595.34
2023-05-06T16:46:26.227Z,101588.38
2023-05-06T16:48:55.328Z,101581.38
2023-05-06T16:51:24.219Z,101574.38
2023-05-06T16:53:52.429Z,101591.13
2023-05-06T16:56:22.700Z,101595.00
2023-05-06T16:58:51.168Z,101586.81
2023-05-06T17:01:19.492Z,101586.81
2023-05-06T17:03:47.701Z,101595.44
2023-05-06T17:06:16.065Z,101581.78
2023-05-06T17:08:44.278Z,101587.59
2023-05-06T17:11:12.481Z,101596.59
2023-05-06T17:13:42.011Z,101595.44
2023-05-06T17:16:10.302Z,101601.28
2023-05-06T17:18:38.582Z,101600.13
2023-05-06T17:21:09.242Z,101593.50
2023-05-06T17:23:37.480Z,101591.94
2023-05-06T17:26:10.078Z,101605.59
2023-05-06T17:28:38.868Z,101603.28
2023-05-06T17:31:08.610Z,101609.56
2023-05-06T17:33:37.065Z,101605.25
2023-05-06T17:36:05.796Z,101611.88
2023-05-06T17:38:34.258Z,101597.81
2023-05-06T17:41:02.462Z,101600.91
2023-05-06T17:43:30.692Z,101604.44
2023-05-06T17:45:58.997Z,101600.50
2023-05-06T17:48:28.792Z,101589.16
2023-05-06T17:51:02.075Z,101589.88
2023-05-06T17:53:32.320Z,101590.59
2023-05-06T17:56:00.518Z,101586.69
2023-05-06T17:58:28.784Z,101583.94
2023-05-06T18:00:57.441Z,101594.09
2023-05-06T18:03:26.073Z,101592.97
2023-05-06T18:05:55.892Z,101599.97
2023-05-06T18:08:24.085Z,101595.69
2023-05-06T18:10:52.267Z,101595.31
2023-05-06T18:13:20.608Z,101596.84
2023-05-06T18:15:48.864Z,101598.88
2023-05-06T18:18:17.147Z,101599.25
2023-05-06T18:20:45.327Z,101602.41
2023-05-06T18:23:14.845Z,101599.31
2023-05-06T18:25:43.142Z,101595.81
2023-05-06T18:28:11.397Z,101596.59
2023-05-06T18:30:39.698Z,101596.25
2023-05-06T18:33:08.007Z,101597.78
2023-05-06T18:35:36.272Z,101590.38
2023-05-06T18:38:04.695Z,101595.47
2023-05-06T18:40:35.206Z,101593.50
2023-05-06T18:43:03.482Z,101594.66
2023-05-06T18:45:31.806Z,101594.66
2023-05-06T18:48:00.152Z,101594.66
2023-05-06T18:50:28.439Z,101593.88
2023-05-06T18:52:56.835Z,101582.16
2023-05-06T18:55:25.181Z,101591.56
2023-05-06T18:57:54.810Z,101597.78
2023-05-06T19:00:24.193Z,101597.03
2023-05-06T19:02:52.541Z,101600.91
2023-05-06T19:05:21.156Z,101599.31
2023-05-06T19:07:49.412Z,101593.84
2023-05-06T19:10:17.898Z,101586.81
2023-05-06T19:12:46.712Z,101590.34
2023-05-06T19:15:18.962Z,101586.81
2023-05-06T19:17:47.414Z,101574.31
2023-05-06T19:20:15.977Z,101579.78
2023-05-06T19:22:44.504Z,101589.53
2023-05-06T19:25:13.055Z,101585.25
2023-05-06T19:27:41.474Z,101576.66
2023-05-06T19:30:11.202Z,101575.88
2023-05-06T19:32:40.857Z,101575.09
2023-05-06T19:35:11.108Z,101579.78
2023-05-06T19:37:39.533Z,101569.25
2023-05-06T19:40:09.566Z,101582.50
2023-05-06T19:42:37.805Z,101580.91
2023-05-06T19:45:09.821Z,101584.41
2023-05-06T19:47:39.884Z,101593.78
2023-05-06T19:50:09.928Z,101589.47
2023-05-06T19:52:38.322Z,101591.41
2023-05-06T19:55:08.251Z,101589.84
2023-05-06T19:57:37.057Z,101589.84
2023-05-06T20:00:10.188Z,101591.81
2023-05-06T20:02:40.212Z,101586.34
2023-05-06T20:05:09.439Z,101585.94
2023-05-06T20:07:38.342Z,101589.84
2023-05-06T20:10:09.631Z,101586.34
2023-05-06T20:12:37.892Z,101589.84
2023-05-06T20:15:07.812Z,101589.06
2023-05-06T20:17:36.153Z,101583.97
2023-05-06T20:20:11.295Z,101584.34
2023-05-06T20:22:40.445Z,101582.03
2023-05-06T20:25:10.606Z,101589.41
2023-05-06T20:27:39.249Z,101590.56
2023-05-06T20:30:09.729Z,101588.63
2023-05-06T20:32:38.559Z,101594.09
2023-05-06T20:35:09.868Z,101594.88
2023-05-06T20:37:38.793Z,101601.50
2023-05-06T20:40:09.750Z,101595.25
2023-05-06T20:42:38.295Z,101589.78
2023-05-06T20:45:08.419Z,101599.13
2023-05-06T20:47:36.866Z,101599.94
2023-05-06T20:50:07.389Z,101599.13
2023-05-06T20:52:35.945Z,101596.41
2023-05-06T20:55:05.797Z,101613.59
2023-05-06T20:57:34.123Z,101605.75
2023-05-06T21:00:02.342Z,101596.41
2023-05-06T21:02:33.034Z,101591.31
2023-05-06T21:05:04.278Z,101599.13
2023-05-06T21:07:33.874Z,101591.31
2023-05-06T21:10:05.810Z,101598.75
2023-05-06T21:12:34.284Z,101598.75
2023-05-06T21:15:02.838Z,101596.38
2023-05-06T21:17:31.125Z,101599.09
2023-05-06T21:19:59.475Z,101595.59
2023-05-06T21:22:27.805Z,101596.75
2023-05-06T21:24:57.329Z,101604.94
2023-05-06T21:27:25.543Z,101601.06
2023-05-06T21:29:53.830Z,101592.06
2023-05-06T21:32:22.133Z,101598.31
2023-05-06T21:34:50.343Z,101591.28
2023-05-06T21:37:18.630Z,101592.06
2023-05-06T21:39:46.869Z,101586.19
2023-05-06T21:42:16.503Z,101595.56
2023-05-06T21:44:44.916Z,101597.53
2023-05-06T21:47:13.115Z,101596.31
2023-05-06T21:49:41.331Z,101600.59
2023-05-06T21:52:09.520Z,101597.44
2023-05-06T21:54:37.735Z,101601.31
2023-05-06T21:57:08.045Z,101604.44
2023-05-06T21:59:37.937Z,101605.59
2023-05-06T22:02:06.314Z,101606.75
2023-05-06T22:04:34.697Z,101608.31
2023-05-06T22:07:02.936Z,101611.81
2023-05-06T22:09:31.187Z,101600.47
2023-05-06T22:11:59.398Z,101602.41
2023-05-06T22:14:37.433Z,101605.94
2023-05-06T22:17:12.573Z,101603.56
2023-05-06T22:19:41.816Z,101600.44
2023-05-06T22:22:10.453Z,101603.16
2023-05-06T22:24:39.371Z,101598.91
2023-05-06T22:27:07.559Z,101596.91
2023-05-06T22:29:36.044Z,101597.28
2023-05-06T22:32:04.772Z,101604.34
2023-05-06T22:34:34.497Z,101596.16
2023-05-06T22:37:06.154Z,101602.38
2023-05-06T22:39:34.365Z,101592.25
2023-05-06T22:42:02.570Z,101590.69
2023-05-06T22:44:30.768Z,101591.81
2023-05-06T22:46:59.042Z,101586.75
2023-05-06T22:49:28.834Z,101590.25
2023-05-06T22:51:58.899Z,101595.31
2023-05-06T22:54:27.239Z,101595.31
2023-05-06T22:56:55.554Z,101591.41
2023-05-06T22:59:23.775Z,101586.72
2023-05-06T23:01:52.155Z,101593.69
2023-05-06T23:04:20.936Z,101587.84
2023-05-06T23:06:49.191Z,101592.53
2023-05-06T23:09:18.745Z,101594.81
2023-05-06T23:11:47.283Z,101590.16
2023-05-06T23:14:17.333Z,101587.44
2023-05-06T23:16:45.576Z,101600.28
2023-05-06T23:19:13.823Z,101591.28
2023-05-06T23:21:43.793Z,101587.00
2023-05-06T23:24:12.614Z,101587.00
2023-05-06T23:26:42.164Z,101586.19
2023-05-06T23:29:10.478Z,101577.63
2023-05-06T23:31:38.765Z,101581.53
2023-05-06T23:34:07.199Z,101586.19
2023-05-06T23:36:35.618Z,101590.91
2023-05-06T23:39:04.141Z,101586.59
2023-05-06T23:41:32.486Z,101587.75
2023-05-06T23:44:02.020Z,101588.56
2023-05-06T23:46:30.246Z,101584.66
2023-05-06T23:48:58.792Z,101594.81
2023-05-06T23:51:27.553Z,101593.22
2023-05-06T23:53:55.768Z,101582.31
2023-05-06T23:56:23.940Z,101588.13
2023-05-06T23:58:52.144Z,101579.13
